sensor_id;sensor_type;location;lat;lon;timestamp;pressure;altitude;pressure_sealevel;temperature;humidity
76084;BME280;64789;0.000;0.000;2023-07-31T00:00:30;93353.75;;;19.32;70.59
76084;BME280;64789;0.000;0.000;2023-07-31T00:02:56;93353.38;;;19.37;70.42
76084;BME280;64789;0.000;0.000;2023-07-31T00:05:21;93355.78;;;19.18;71.19
76084;BME280;64789;0.000;0.000;2023-07-31T00:07:47;93354.28;;;19.28;71.20
76084;BME280;64789;0.000;0.000;2023-07-31T00:10:12;93360.03;;;19.30;70.67
76084;BME280;64789;0.000;0.000;2023-07-31T00:12:38;93356.81;;;19.36;70.85
76084;BME280;64789;0.000;0.000;2023-07-31T00:15:05;93350.88;;;19.18;72.09
76084;BME280;64789;0.000;0.000;2023-07-31T00:17:31;93355.88;;;19.31;71.57
76084;BME280;64789;0.000;0.000;2023-07-31T00:19:56;93356.41;;;19.16;72.04
76084;BME280;64789;0.000;0.000;2023-07-31T00:22:22;93364.16;;;19.16;72.34
76084;BME280;64789;0.000;0.000;2023-07-31T00:24:48;93355.28;;;19.21;72.46
76084;BME280;64789;0.000;0.000;2023-07-31T00:27:13;93356.13;;;19.24;72.58
76084;BME280;64789;0.000;0.000;2023-07-31T00:29:39;93349.25;;;19.15;72.14
76084;BME280;64789;0.000;0.000;2023-07-31T00:32:05;93357.31;;;19.07;72.83
76084;BME280;64789;0.000;0.000;2023-07-31T00:34:30;93359.63;;;19.11;72.95
76084;BME280;64789;0.000;0.000;2023-07-31T00:36:56;93354.19;;;19.15;72.87
76084;BME280;64789;0.000;0.000;2023-07-31T00:39:21;93352.00;;;19.13;73.14
76084;BME280;64789;0.000;0.000;2023-07-31T00:41:47;93348.31;;;19.11;72.90
76084;BME280;64789;0.000;0.000;2023-07-31T00:44:12;93338.94;;;19.08;73.38
76084;BME280;64789;0.000;0.000;2023-07-31T00:46:38;93341.09;;;18.96;73.71
76084;BME280;64789;0.000;0.000;2023-07-31T00:49:03;93325.91;;;19.03;73.37
76084;BME280;64789;0.000;0.000;2023-07-31T00:51:30;93323.53;;;18.86;74.71
76084;BME280;64789;0.000;0.000;2023-07-31T00:53:55;93302.03;;;19.06;73.07
76084;BME280;64789;0.000;0.000;2023-07-31T00:56:21;93299.16;;;18.92;74.80
76084;BME280;64789;0.000;0.000;2023-07-31T00:58:47;93299.31;;;18.71;75.91
76084;BME280;64789;0.000;0.000;2023-07-31T01:01:13;93299.25;;;18.58;76.16
76084;BME280;64789;0.000;0.000;2023-07-31T01:03:38;93307.38;;;18.63;76.12
76084;BME280;64789;0.000;0.000;2023-07-31T01:06:15;93304.81;;;18.56;76.42
76084;BME280;64789;0.000;0.000;2023-07-31T01:08:51;93316.91;;;18.81;75.29
76084;BME280;64789;0.000;0.000;2023-07-31T01:11:40;93314.19;;;18.83;75.19
76084;BME280;64789;0.000;0.000;2023-07-31T01:14:04;93312.63;;;18.69;76.21
76084;BME280;64789;0.000;0.000;2023-07-31T01:16:30;93309.19;;;18.70;75.86
76084;BME280;64789;0.000;0.000;2023-07-31T01:18:55;93302.53;;;18.77;75.14
76084;BME280;64789;0.000;0.000;2023-07-31T01:26:56;93308.94;;;18.66;75.81
76084;BME280;64789;0.000;0.000;2023-07-31T01:29:27;93301.66;;;18.75;74.71
76084;BME280;64789;0.000;0.000;2023-07-31T01:31:56;93296.81;;;18.52;75.80
76084;BME280;64789;0.000;0.000;2023-07-31T01:34:22;93284.50;;;18.48;75.42
76084;BME280;64789;0.000;0.000;2023-07-31T01:36:47;93283.56;;;18.68;74.83
76084;BME280;64789;0.000;0.000;2023-07-31T01:39:13;93291.78;;;18.51;75.71
76084;BME280;64789;0.000;0.000;2023-07-31T01:41:40;93291.03;;;18.27;76.81
76084;BME280;64789;0.000;0.000;2023-07-31T01:44:06;93292.16;;;18.33;76.49
76084;BME280;64789;0.000;0.000;2023-07-31T01:46:31;93285.13;;;18.34;76.30
76084;BME280;64789;0.000;0.000;2023-07-31T01:48:57;93286.25;;;18.29;76.74
76084;BME280;64789;0.000;0.000;2023-07-31T01:51:23;93280.94;;;18.47;76.13
76084;BME280;64789;0.000;0.000;2023-07-31T01:53:48;93284.75;;;18.52;76.04
76084;BME280;64789;0.000;0.000;2023-07-31T01:56:14;93283.91;;;18.37;76.97
76084;BME280;64789;0.000;0.000;2023-07-31T01:58:40;93286.34;;;18.43;77.55
76084;BME280;64789;0.000;0.000;2023-07-31T02:01:05;93292.84;;;18.46;76.92
76084;BME280;64789;0.000;0.000;2023-07-31T02:03:33;93295.94;;;18.38;77.20
76084;BME280;64789;0.000;0.000;2023-07-31T02:05:59;93289.19;;;18.43;77.60
76084;BME280;64789;0.000;0.000;2023-07-31T02:08:24;93298.28;;;18.53;77.04
76084;BME280;64789;0.000;0.000;2023-07-31T02:10:51;93302.47;;;18.52;77.86
76084;BME280;64789;0.000;0.000;2023-07-31T02:13:16;93304.66;;;18.54;77.83
76084;BME280;64789;0.000;0.000;2023-07-31T02:15:42;93307.50;;;18.54;78.00
76084;BME280;64789;0.000;0.000;2023-07-31T02:18:08;93304.91;;;18.58;77.97
76084;BME280;64789;0.000;0.000;2023-07-31T02:20:34;93304.31;;;18.48;78.51
76084;BME280;64789;0.000;0.000;2023-07-31T02:23:01;93316.22;;;18.58;78.51
76084;BME280;64789;0.000;0.000;2023-07-31T02:25:27;93319.88;;;18.72;78.15
76084;BME280;64789;0.000;0.000;2023-07-31T02:27:52;93325.66;;;18.74;77.87
76084;BME280;64789;0.000;0.000;2023-07-31T02:30:18;93318.16;;;18.67;78.21
76084;BME280;64789;0.000;0.000;2023-07-31T02:32:43;93324.41;;;18.77;77.78
76084;BME280;64789;0.000;0.000;2023-07-31T02:35:09;93334.63;;;18.82;77.40
76084;BME280;64789;0.000;0.000;2023-07-31T02:37:35;93328.59;;;18.76;78.10
76084;BME280;64789;0.000;0.000;2023-07-31T02:40:01;93330.97;;;18.68;78.45
76084;BME280;64789;0.000;0.000;2023-07-31T02:42:28;93326.53;;;18.65;78.96
76084;BME280;64789;0.000;0.000;2023-07-31T02:44:53;93327.50;;;18.69;78.63
76084;BME280;64789;0.000;0.000;2023-07-31T02:47:21;93324.31;;;18.75;78.75
76084;BME280;64789;0.000;0.000;2023-07-31T02:49:47;93331.84;;;18.70;78.81
76084;BME280;64789;0.000;0.000;2023-07-31T02:52:13;93320.88;;;18.65;78.86
76084;BME280;64789;0.000;0.000;2023-07-31T02:54:38;93326.63;;;18.78;78.48
76084;BME280;64789;0.000;0.000;2023-07-31T02:57:04;93321.38;;;18.73;78.88
76084;BME280;64789;0.000;0.000;2023-07-31T02:59:30;93327.28;;;18.65;79.40
76084;BME280;64789;0.000;0.000;2023-07-31T03:01:55;93326.53;;;18.65;79.18
76084;BME280;64789;0.000;0.000;2023-07-31T03:04:21;93333.94;;;18.58;79.14
76084;BME280;64789;0.000;0.000;2023-07-31T03:06:47;93335.94;;;18.56;79.48
76084;BME280;64789;0.000;0.000;2023-07-31T03:09:12;93323.50;;;18.49;80.05
76084;BME280;64789;0.000;0.000;2023-07-31T03:11:38;93326.81;;;18.57;79.53
76084;BME280;64789;0.000;0.000;2023-07-31T03:14:04;93325.06;;;18.64;79.44
76084;BME280;64789;0.000;0.000;2023-07-31T03:16:29;93333.66;;;18.66;78.92
76084;BME280;64789;0.000;0.000;2023-07-31T03:18:55;93342.16;;;18.66;79.41
76084;BME280;64789;0.000;0.000;2023-07-31T03:21:20;93331.72;;;18.57;79.80
76084;BME280;64789;0.000;0.000;2023-07-31T03:23:46;93346.25;;;18.63;79.66
76084;BME280;64789;0.000;0.000;2023-07-31T03:26:11;93337.97;;;18.67;79.96
76084;BME280;64789;0.000;0.000;2023-07-31T03:28:37;93343.59;;;18.78;78.94
76084;BME280;64789;0.000;0.000;2023-07-31T03:31:03;93337.97;;;18.67;79.50
76084;BME280;64789;0.000;0.000;2023-07-31T03:33:29;93334.13;;;18.74;79.32
76084;BME280;64789;0.000;0.000;2023-07-31T03:35:55;93337.81;;;18.76;79.14
76084;BME280;64789;0.000;0.000;2023-07-31T03:38:21;93348.41;;;18.76;79.45
76084;BME280;64789;0.000;0.000;2023-07-31T03:40:47;93355.31;;;18.61;79.75
76084;BME280;64789;0.000;0.000;2023-07-31T03:43:12;93347.19;;;18.79;79.15
76084;BME280;64789;0.000;0.000;2023-07-31T03:45:38;93349.00;;;18.86;78.86
76084;BME280;64789;0.000;0.000;2023-07-31T03:48:04;93355.13;;;18.94;78.44
76084;BME280;64789;0.000;0.000;2023-07-31T03:50:30;93354.16;;;18.89;78.59
76084;BME280;64789;0.000;0.000;2023-07-31T03:52:55;93356.38;;;18.91;78.43
76084;BME280;64789;0.000;0.000;2023-07-31T03:55:21;93356.91;;;18.76;80.15
76084;BME280;64789;0.000;0.000;2023-07-31T03:57:47;93355.78;;;18.81;79.65
76084;BME280;64789;0.000;0.000;2023-07-31T04:00:13;93360.44;;;18.88;78.92
76084;BME280;64789;0.000;0.000;2023-07-31T04:02:40;93364.03;;;18.77;79.72
76084;BME280;64789;0.000;0.000;2023-07-31T04:05:06;93359.50;;;18.72;80.20
76084;BME280;64789;0.000;0.000;2023-07-31T04:07:31;93372.53;;;18.77;80.13
76084;BME280;64789;0.000;0.000;2023-07-31T04:09:57;93366.56;;;18.96;78.73
76084;BME280;64789;0.000;0.000;2023-07-31T04:12:23;93372.94;;;19.08;78.16
76084;BME280;64789;0.000;0.000;2023-07-31T04:14:48;93371.34;;;19.05;78.35
76084;BME280;64789;0.000;0.000;2023-07-31T04:17:14;93373.91;;;19.13;78.12
76084;BME280;64789;0.000;0.000;2023-07-31T04:19:39;93376.25;;;19.16;77.62
76084;BME280;64789;0.000;0.000;2023-07-31T04:22:05;93374.75;;;19.15;77.76
76084;BME280;64789;0.000;0.000;2023-07-31T04:24:31;93368.00;;;19.09;77.91
76084;BME280;64789;0.000;0.000;2023-07-31T04:26:56;93367.78;;;19.05;78.65
76084;BME280;64789;0.000;0.000;2023-07-31T04:29:22;93372.56;;;19.14;77.81
76084;BME280;64789;0.000;0.000;2023-07-31T04:31:48;93369.34;;;19.08;78.61
76084;BME280;64789;0.000;0.000;2023-07-31T04:34:14;93369.09;;;19.15;77.04
76084;BME280;64789;0.000;0.000;2023-07-31T04:36:40;93375.44;;;19.27;76.60
76084;BME280;64789;0.000;0.000;2023-07-31T04:39:06;93374.38;;;19.21;76.76
76084;BME280;64789;0.000;0.000;2023-07-31T04:41:31;93369.72;;;19.14;76.72
76084;BME280;64789;0.000;0.000;2023-07-31T04:43:57;93364.53;;;19.22;75.84
76084;BME280;64789;0.000;0.000;2023-07-31T04:46:23;93373.09;;;19.35;76.03
76084;BME280;64789;0.000;0.000;2023-07-31T04:48:48;93375.78;;;19.45;75.97
76084;BME280;64789;0.000;0.000;2023-07-31T04:51:14;93372.84;;;19.43;76.14
76084;BME280;64789;0.000;0.000;2023-07-31T04:53:39;93363.19;;;19.48;75.73
76084;BME280;64789;0.000;0.000;2023-07-31T04:56:05;93371.59;;;19.46;75.75
76084;BME280;64789;0.000;0.000;2023-07-31T04:58:31;93369.09;;;19.52;75.36
76084;BME280;64789;0.000;0.000;2023-07-31T05:00:57;93371.31;;;19.53;74.49
76084;BME280;64789;0.000;0.000;2023-07-31T05:03:22;93379.34;;;19.71;74.04
76084;BME280;64789;0.000;0.000;2023-07-31T05:05:49;93374.81;;;19.65;74.30
76084;BME280;64789;0.000;0.000;2023-07-31T05:08:14;93377.88;;;19.70;74.28
76084;BME280;64789;0.000;0.000;2023-07-31T05:10:43;93381.09;;;19.64;74.58
76084;BME280;64789;0.000;0.000;2023-07-31T05:13:08;93371.88;;;19.63;74.39
76084;BME280;64789;0.000;0.000;2023-07-31T05:15:34;93377.13;;;19.69;74.02
76084;BME280;64789;0.000;0.000;2023-07-31T05:18:00;93377.66;;;19.65;74.70
76084;BME280;64789;0.000;0.000;2023-07-31T05:20:25;93380.66;;;19.56;74.52
76084;BME280;64789;0.000;0.000;2023-07-31T05:22:52;93371.97;;;19.65;73.94
76084;BME280;64789;0.000;0.000;2023-07-31T05:25:18;93368.47;;;19.53;73.96
76084;BME280;64789;0.000;0.000;2023-07-31T05:27:44;93372.56;;;19.50;73.78
76084;BME280;64789;0.000;0.000;2023-07-31T05:30:10;93377.19;;;19.57;73.91
76084;BME280;64789;0.000;0.000;2023-07-31T05:32:35;93375.25;;;19.74;73.17
76084;BME280;64789;0.000;0.000;2023-07-31T05:35:01;93377.78;;;19.81;73.65
76084;BME280;64789;0.000;0.000;2023-07-31T05:37:27;93378.53;;;19.82;73.38
76084;BME280;64789;0.000;0.000;2023-07-31T05:39:52;93378.75;;;19.86;72.82
76084;BME280;64789;0.000;0.000;2023-07-31T05:42:18;93365.94;;;19.85;73.59
76084;BME280;64789;0.000;0.000;2023-07-31T05:44:44;93370.78;;;19.96;72.28
76084;BME280;64789;0.000;0.000;2023-07-31T05:47:10;93374.19;;;20.06;72.33
76084;BME280;64789;0.000;0.000;2023-07-31T05:49:36;93372.94;;;20.09;72.08
76084;BME280;64789;0.000;0.000;2023-07-31T05:52:02;93379.25;;;20.21;71.77
76084;BME280;64789;0.000;0.000;2023-07-31T05:54:27;93373.47;;;20.19;71.30
76084;BME280;64789;0.000;0.000;2023-07-31T05:56:53;93368.78;;;20.23;70.52
76084;BME280;64789;0.000;0.000;2023-07-31T05:59:19;93380.47;;;20.29;71.18
76084;BME280;64789;0.000;0.000;2023-07-31T06:01:44;93380.56;;;20.32;70.43
76084;BME280;64789;0.000;0.000;2023-07-31T06:04:10;93380.25;;;20.39;70.23
76084;BME280;64789;0.000;0.000;2023-07-31T06:06:36;93377.84;;;20.47;70.46
76084;BME280;64789;0.000;0.000;2023-07-31T06:09:02;93385.53;;;20.58;70.59
76084;BME280;64789;0.000;0.000;2023-07-31T06:11:29;93378.16;;;20.67;69.39
76084;BME280;64789;0.000;0.000;2023-07-31T06:13:54;93381.00;;;20.53;68.57
76084;BME280;64789;0.000;0.000;2023-07-31T06:16:20;93383.94;;;20.82;68.32
76084;BME280;64789;0.000;0.000;2023-07-31T06:18:47;93382.88;;;20.89;68.24
76084;BME280;64789;0.000;0.000;2023-07-31T06:21:12;93381.84;;;20.83;66.50
76084;BME280;64789;0.000;0.000;2023-07-31T06:23:38;93384.31;;;21.18;66.10
76084;BME280;64789;0.000;0.000;2023-07-31T06:26:04;93384.72;;;21.26;66.57
76084;BME280;64789;0.000;0.000;2023-07-31T06:28:31;93384.94;;;21.30;65.11
76084;BME280;64789;0.000;0.000;2023-07-31T06:30:57;93386.88;;;21.12;64.15
76084;BME280;64789;0.000;0.000;2023-07-31T06:33:23;93377.78;;;21.29;64.44
76084;BME280;64789;0.000;0.000;2023-07-31T06:35:49;93378.06;;;21.35;64.20
76084;BME280;64789;0.000;0.000;2023-07-31T06:38:15;93380.63;;;21.29;63.03
76084;BME280;64789;0.000;0.000;2023-07-31T06:40:40;93374.84;;;21.56;64.08
76084;BME280;64789;0.000;0.000;2023-07-31T06:43:06;93382.34;;;21.49;62.47
76084;BME280;64789;0.000;0.000;2023-07-31T06:45:35;93384.47;;;21.49;62.52
76084;BME280;64789;0.000;0.000;2023-07-31T06:48:01;93376.81;;;21.67;61.43
76084;BME280;64789;0.000;0.000;2023-07-31T06:50:30;93375.72;;;21.74;60.77
76084;BME280;64789;0.000;0.000;2023-07-31T06:52:56;93384.41;;;21.92;61.68
76084;BME280;64789;0.000;0.000;2023-07-31T06:55:22;93393.25;;;22.13;60.80
76084;BME280;64789;0.000;0.000;2023-07-31T06:57:49;93388.03;;;22.23;59.95
76084;BME280;64789;0.000;0.000;2023-07-31T07:00:15;93389.97;;;22.35;57.88
76084;BME280;64789;0.000;0.000;2023-07-31T07:02:41;93384.84;;;22.47;57.35
76084;BME280;64789;0.000;0.000;2023-07-31T07:05:07;93389.78;;;22.46;57.47
76084;BME280;64789;0.000;0.000;2023-07-31T07:07:33;93392.34;;;22.56;57.14
76084;BME280;64789;0.000;0.000;2023-07-31T07:09:59;93400.81;;;22.22;57.71
76084;BME280;64789;0.000;0.000;2023-07-31T07:12:25;93403.75;;;22.24;57.52
76084;BME280;64789;0.000;0.000;2023-07-31T07:14:51;93407.38;;;22.11;58.34
76084;BME280;64789;0.000;0.000;2023-07-31T07:17:21;93405.72;;;22.06;58.55
76084;BME280;64789;0.000;0.000;2023-07-31T07:19:47;93403.19;;;22.28;59.03
76084;BME280;64789;0.000;0.000;2023-07-31T07:22:13;93396.16;;;22.45;58.22
76084;BME280;64789;0.000;0.000;2023-07-31T07:24:39;93394.78;;;22.61;57.50
76084;BME280;64789;0.000;0.000;2023-07-31T07:27:05;93396.94;;;22.47;57.18
76084;BME280;64789;0.000;0.000;2023-07-31T07:29:31;93406.13;;;22.46;58.00
76084;BME280;64789;0.000;0.000;2023-07-31T07:31:57;93410.66;;;22.66;56.69
76084;BME280;64789;0.000;0.000;2023-07-31T07:34:25;93401.31;;;22.64;57.65
76084;BME280;64789;0.000;0.000;2023-07-31T07:36:50;93406.16;;;22.61;56.72
76084;BME280;64789;0.000;0.000;2023-07-31T07:39:16;93398.59;;;22.52;55.83
76084;BME280;64789;0.000;0.000;2023-07-31T07:41:41;93395.28;;;22.27;57.77
76084;BME280;64789;0.000;0.000;2023-07-31T07:44:07;93406.78;;;22.75;56.41
76084;BME280;64789;0.000;0.000;2023-07-31T07:46:33;93400.13;;;23.02;55.77
76084;BME280;64789;0.000;0.000;2023-07-31T07:48:59;93406.88;;;22.93;56.02
76084;BME280;64789;0.000;0.000;2023-07-31T07:51:24;93406.31;;;22.97;54.86
76084;BME280;64789;0.000;0.000;2023-07-31T07:53:50;93421.28;;;22.97;55.14
76084;BME280;64789;0.000;0.000;2023-07-31T07:56:16;93412.00;;;22.97;55.63
76084;BME280;64789;0.000;0.000;2023-07-31T07:58:42;93418.19;;;22.75;55.07
76084;BME280;64789;0.000;0.000;2023-07-31T08:01:08;93414.44;;;22.71;55.01
76084;BME280;64789;0.000;0.000;2023-07-31T08:03:33;93415.69;;;22.52;54.99
76084;BME280;64789;0.000;0.000;2023-07-31T08:05:59;93419.03;;;22.78;54.25
76084;BME280;64789;0.000;0.000;2023-07-31T08:08:25;93411.97;;;23.12;54.58
76084;BME280;64789;0.000;0.000;2023-07-31T08:10:51;93412.66;;;23.28;53.12
76084;BME280;64789;0.000;0.000;2023-07-31T08:13:17;93414.69;;;23.26;53.28
76084;BME280;64789;0.000;0.000;2023-07-31T08:15:43;93417.16;;;23.49;52.15
76084;BME280;64789;0.000;0.000;2023-07-31T08:18:09;93414.75;;;23.43;51.83
76084;BME280;64789;0.000;0.000;2023-07-31T08:20:36;93419.75;;;23.27;52.31
76084;BME280;64789;0.000;0.000;2023-07-31T08:23:02;93409.81;;;23.44;52.97
76084;BME280;64789;0.000;0.000;2023-07-31T08:25:28;93422.84;;;23.33;53.56
76084;BME280;64789;0.000;0.000;2023-07-31T08:27:53;93424.41;;;23.52;52.61
76084;BME280;64789;0.000;0.000;2023-07-31T08:30:19;93418.69;;;23.70;52.15
76084;BME280;64789;0.000;0.000;2023-07-31T08:32:45;93413.13;;;24.07;51.70
76084;BME280;64789;0.000;0.000;2023-07-31T08:35:12;93404.44;;;24.05;51.10
76084;BME280;64789;0.000;0.000;2023-07-31T08:37:38;93404.81;;;24.13;50.16
76084;BME280;64789;0.000;0.000;2023-07-31T08:40:04;93417.50;;;24.28;51.30
76084;BME280;64789;0.000;0.000;2023-07-31T08:42:31;93402.53;;;24.47;49.91
76084;BME280;64789;0.000;0.000;2023-07-31T08:44:57;93410.69;;;24.54;49.87
76084;BME280;64789;0.000;0.000;2023-07-31T08:47:23;93409.06;;;24.87;48.09
76084;BME280;64789;0.000;0.000;2023-07-31T08:49:49;93415.50;;;24.87;48.34
76084;BME280;64789;0.000;0.000;2023-07-31T08:52:16;93417.41;;;25.00;48.66
76084;BME280;64789;0.000;0.000;2023-07-31T08:54:42;93414.19;;;25.10;46.41
76084;BME280;64789;0.000;0.000;2023-07-31T08:57:08;93411.81;;;25.24;47.74
76084;BME280;64789;0.000;0.000;2023-07-31T08:59:35;93414.63;;;24.45;46.84
76084;BME280;64789;0.000;0.000;2023-07-31T09:02:05;93410.81;;;24.21;47.58
76084;BME280;64789;0.000;0.000;2023-07-31T09:04:32;93409.28;;;24.55;48.43
76084;BME280;64789;0.000;0.000;2023-07-31T09:06:59;93403.63;;;24.95;48.54
76084;BME280;64789;0.000;0.000;2023-07-31T09:09:26;93419.81;;;25.08;46.95
76084;BME280;64789;0.000;0.000;2023-07-31T09:11:51;93412.09;;;24.73;46.51
76084;BME280;64789;0.000;0.000;2023-07-31T09:14:18;93409.69;;;24.48;46.63
76084;BME280;64789;0.000;0.000;2023-07-31T09:16:53;93402.13;;;24.74;46.36
76084;BME280;64789;0.000;0.000;2023-07-31T09:19:26;93411.09;;;24.47;46.73
76084;BME280;64789;0.000;0.000;2023-07-31T09:21:52;93405.91;;;24.61;47.09
76084;BME280;64789;0.000;0.000;2023-07-31T09:24:30;93401.38;;;24.91;46.22
76084;BME280;64789;0.000;0.000;2023-07-31T09:26:56;93404.78;;;25.27;45.79
76084;BME280;64789;0.000;0.000;2023-07-31T09:29:24;93400.53;;;25.28;45.34
76084;BME280;64789;0.000;0.000;2023-07-31T09:31:50;93403.34;;;25.26;43.61
76084;BME280;64789;0.000;0.000;2023-07-31T09:34:16;93386.16;;;25.26;44.74
76084;BME280;64789;0.000;0.000;2023-07-31T09:36:42;93388.66;;;25.35;45.77
76084;BME280;64789;0.000;0.000;2023-07-31T09:39:09;93379.72;;;25.25;44.13
76084;BME280;64789;0.000;0.000;2023-07-31T09:41:38;93378.00;;;25.38;45.09
76084;BME280;64789;0.000;0.000;2023-07-31T09:44:04;93386.81;;;25.24;45.37
76084;BME280;64789;0.000;0.000;2023-07-31T09:46:30;93388.81;;;25.20;45.78
76084;BME280;64789;0.000;0.000;2023-07-31T09:49:06;93390.13;;;25.17;45.32
76084;BME280;64789;0.000;0.000;2023-07-31T09:51:32;93388.22;;;25.23;45.19
76084;BME280;64789;0.000;0.000;2023-07-31T09:54:03;93387.75;;;25.31;45.43
76084;BME280;64789;0.000;0.000;2023-07-31T09:56:29;93384.97;;;25.33;44.71
76084;BME280;64789;0.000;0.000;2023-07-31T09:58:57;93383.63;;;25.36;45.29
76084;BME280;64789;0.000;0.000;2023-07-31T10:01:23;93382.56;;;25.67;45.19
76084;BME280;64789;0.000;0.000;2023-07-31T10:03:49;93379.44;;;25.80;44.99
76084;BME280;64789;0.000;0.000;2023-07-31T10:06:15;93390.41;;;25.88;44.53
76084;BME280;64789;0.000;0.000;2023-07-31T10:08:43;93381.66;;;25.82;44.06
76084;BME280;64789;0.000;0.000;2023-07-31T10:11:11;93387.63;;;25.68;44.26
76084;BME280;64789;0.000;0.000;2023-07-31T10:13:39;93382.69;;;25.71;44.28
76084;BME280;64789;0.000;0.000;2023-07-31T10:16:06;93377.59;;;25.89;44.32
76084;BME280;64789;0.000;0.000;2023-07-31T10:18:33;93386.50;;;25.99;43.07
76084;BME280;64789;0.000;0.000;2023-07-31T10:21:00;93389.63;;;25.85;43.92
76084;BME280;64789;0.000;0.000;2023-07-31T10:23:26;93385.22;;;25.61;43.47
76084;BME280;64789;0.000;0.000;2023-07-31T10:25:55;93382.69;;;25.71;44.54
76084;BME280;64789;0.000;0.000;2023-07-31T10:28:22;93372.19;;;26.21;45.36
76084;BME280;64789;0.000;0.000;2023-07-31T10:30:48;93374.88;;;26.17;43.27
76084;BME280;64789;0.000;0.000;2023-07-31T10:33:14;93383.69;;;26.23;43.39
76084;BME280;64789;0.000;0.000;2023-07-31T10:35:41;93384.91;;;26.39;43.24
76084;BME280;64789;0.000;0.000;2023-07-31T10:38:10;93378.78;;;26.98;43.61
76084;BME280;64789;0.000;0.000;2023-07-31T10:40:37;93375.81;;;27.20;42.11
76084;BME280;64789;0.000;0.000;2023-07-31T10:43:03;93378.41;;;26.84;41.87
76084;BME280;64789;0.000;0.000;2023-07-31T10:45:36;93371.13;;;26.57;42.83
76084;BME280;64789;0.000;0.000;2023-07-31T10:50:28;93377.03;;;26.16;43.31
76084;BME280;64789;0.000;0.000;2023-07-31T10:52:55;93374.56;;;26.06;43.44
76084;BME280;64789;0.000;0.000;2023-07-31T10:55:24;93370.44;;;25.90;42.65
76084;BME280;64789;0.000;0.000;2023-07-31T10:57:51;93367.03;;;26.17;43.53
76084;BME280;64789;0.000;0.000;2023-07-31T11:00:19;93358.28;;;25.89;42.11
76084;BME280;64789;0.000;0.000;2023-07-31T11:08:15;93356.25;;;26.16;42.59
76084;BME280;64789;0.000;0.000;2023-07-31T11:10:42;93358.59;;;26.21;42.07
76084;BME280;64789;0.000;0.000;2023-07-31T11:13:08;93359.06;;;26.14;42.88
76084;BME280;64789;0.000;0.000;2023-07-31T11:15:33;93359.56;;;26.08;43.16
76084;BME280;64789;0.000;0.000;2023-07-31T11:18:02;93362.47;;;25.86;42.82
76084;BME280;64789;0.000;0.000;2023-07-31T11:20:34;93356.19;;;25.70;43.21
76084;BME280;64789;0.000;0.000;2023-07-31T11:23:03;93355.41;;;25.68;43.37
76084;BME280;64789;0.000;0.000;2023-07-31T11:25:30;93360.31;;;25.65;42.61
76084;BME280;64789;0.000;0.000;2023-07-31T11:27:57;93351.03;;;25.65;42.78
76084;BME280;64789;0.000;0.000;2023-07-31T11:30:23;93347.16;;;25.78;42.66
76084;BME280;64789;0.000;0.000;2023-07-31T11:32:49;93353.25;;;25.90;42.29
76084;BME280;64789;0.000;0.000;2023-07-31T11:35:15;93347.91;;;26.02;42.77
76084;BME280;64789;0.000;0.000;2023-07-31T11:37:41;93351.94;;;25.93;41.65
76084;BME280;64789;0.000;0.000;2023-07-31T11:40:07;93353.88;;;25.86;42.69
76084;BME280;64789;0.000;0.000;2023-07-31T11:42:37;93348.97;;;25.67;43.32
76084;BME280;64789;0.000;0.000;2023-07-31T11:45:06;93348.97;;;25.67;42.98
76084;BME280;64789;0.000;0.000;2023-07-31T11:47:32;93340.91;;;25.62;43.27
76084;BME280;64789;0.000;0.000;2023-07-31T11:50:00;93345.16;;;25.61;42.65
76084;BME280;64789;0.000;0.000;2023-07-31T11:52:27;93347.09;;;25.54;42.35
76084;BME280;64789;0.000;0.000;2023-07-31T11:54:53;93342.84;;;25.55;42.33
76084;BME280;64789;0.000;0.000;2023-07-31T11:57:19;93338.38;;;25.50;42.23
76084;BME280;64789;0.000;0.000;2023-07-31T11:59:45;93339.03;;;25.49;42.21
76084;BME280;64789;0.000;0.000;2023-07-31T12:02:11;93341.38;;;25.54;41.98
76084;BME280;64789;0.000;0.000;2023-07-31T12:04:37;93335.13;;;25.60;42.02
76084;BME280;64789;0.000;0.000;2023-07-31T12:07:04;93328.53;;;25.55;42.12
76084;BME280;64789;0.000;0.000;2023-07-31T12:09:30;93325.53;;;25.51;42.22
76084;BME280;64789;0.000;0.000;2023-07-31T12:11:55;93331.06;;;25.67;41.81
76084;BME280;64789;0.000;0.000;2023-07-31T12:14:24;93333.47;;;25.53;41.54
76084;BME280;64789;0.000;0.000;2023-07-31T12:16:58;93321.94;;;25.51;42.50
76084;BME280;64789;0.000;0.000;2023-07-31T12:19:25;93322.63;;;25.49;41.97
76084;BME280;64789;0.000;0.000;2023-07-31T12:21:53;93314.66;;;25.46;42.21
76084;BME280;64789;0.000;0.000;2023-07-31T12:24:20;93310.25;;;25.88;42.07
76084;BME280;64789;0.000;0.000;2023-07-31T12:26:46;93301.72;;;26.35;40.65
76084;BME280;64789;0.000;0.000;2023-07-31T12:29:14;93305.53;;;26.44;40.14
76084;BME280;64789;0.000;0.000;2023-07-31T12:31:42;93301.00;;;26.84;39.44
76084;BME280;64789;0.000;0.000;2023-07-31T12:34:18;93302.06;;;26.97;39.62
76084;BME280;64789;0.000;0.000;2023-07-31T12:36:43;93303.94;;;27.14;38.89
76084;BME280;64789;0.000;0.000;2023-07-31T12:39:10;93295.19;;;27.35;38.18
76084;BME280;64789;0.000;0.000;2023-07-31T12:41:36;93294.78;;;27.47;38.32
76084;BME280;64789;0.000;0.000;2023-07-31T12:44:02;93293.25;;;27.44;38.02
76084;BME280;64789;0.000;0.000;2023-07-31T12:46:28;93300.50;;;27.47;38.09
76084;BME280;64789;0.000;0.000;2023-07-31T12:48:54;93294.41;;;27.33;37.33
76084;BME280;64789;0.000;0.000;2023-07-31T12:51:20;93290.47;;;27.20;37.92
76084;BME280;64789;0.000;0.000;2023-07-31T12:53:46;93278.00;;;27.37;38.01
76084;BME280;64789;0.000;0.000;2023-07-31T12:56:12;93283.94;;;27.44;37.78
76084;BME280;64789;0.000;0.000;2023-07-31T12:58:38;93278.75;;;27.10;38.40
76084;BME280;64789;0.000;0.000;2023-07-31T13:01:04;93275.91;;;27.12;38.18
76084;BME280;64789;0.000;0.000;2023-07-31T13:03:29;93282.69;;;26.97;38.24
76084;BME280;64789;0.000;0.000;2023-07-31T13:05:55;93275.22;;;26.86;38.76
76084;BME280;64789;0.000;0.000;2023-07-31T13:08:21;93274.78;;;26.70;39.29
76084;BME280;64789;0.000;0.000;2023-07-31T13:10:47;93277.69;;;26.72;39.63
76084;BME280;64789;0.000;0.000;2023-07-31T13:13:12;93275.56;;;26.98;39.48
76084;BME280;64789;0.000;0.000;2023-07-31T13:15:38;93273.91;;;27.45;38.68
76084;BME280;64789;0.000;0.000;2023-07-31T13:18:04;93271.66;;;27.71;37.16